CheckWX is a tool to help pilots better visualize weather data.  It is not intended as a substitute for an official pre-flight weather briefing.

14:50:37 UTC

KSBM METAR
Sheboygan County Memorial Airport
Sheboygan, Wisconsin, USA
Current

58 mins ago

KSBM 201353Z AUTO 33016G24KT 10SM OVC020 08/03 A2999 RMK AO2 SLP158 T00780033
Observed
May-20 @ 13:53 UTC
Wind
  • 330° at 16 KTS
  • Gusting to 24 KTS
Visibility
10 SM
Flight Rules
MVFR
Cloud Levels
  • Overcast at 2,000' AGL
Temperature
C / 46°F
Dewpoint
C / 37°F
Humidity
71%
Altimeter
29.99" Hg
Pressure
1015.62 hPa
Previous

2 hours ago

KSBM 201253Z AUTO 32012G19KT 10SM OVC019 07/03 A2995 RMK AO2 SLP147 T00720033
Observed
May-20 @ 12:53 UTC
Wind
  • 320° at 12 KTS
  • Gusting to 19 KTS
Visibility
10 SM
Flight Rules
MVFR
Cloud Levels
  • Overcast at 1,900' AGL
Temperature
C / 45°F
Dewpoint
C / 37°F
Humidity
76%
Altimeter
29.95" Hg
Pressure
1014.22 hPa
Previous

3 hours ago

KSBM 201153Z AUTO 31010G21KT 10SM OVC016 06/03 A2992 RMK AO2 SLP136 60001 70004 T00610028 10078 20056 51029
Observed
May-20 @ 11:53 UTC
Wind
  • 310° at 10 KTS
  • Gusting to 21 KTS
Visibility
10 SM
Flight Rules
MVFR
Cloud Levels
  • Overcast at 1,600' AGL
Temperature
C / 43°F
Dewpoint
C / 37°F
Humidity
81%
Altimeter
29.92" Hg
Pressure
1013.22 hPa
24 Hour Rain
0.04"